createdAt,value
2022-12-23T00:00:18.225Z,46.61
2022-12-23T00:01:18.407Z,46.61
2022-12-23T00:02:18.550Z,46.56
2022-12-23T00:03:18.733Z,46.66
2022-12-23T00:04:18.711Z,46.76
2022-12-23T00:05:18.817Z,46.71
2022-12-23T00:06:18.999Z,46.87
2022-12-23T00:07:19.101Z,46.92
2022-12-23T00:08:19.199Z,46.92
2022-12-23T00:09:19.320Z,47.00
2022-12-23T00:10:19.392Z,47.16
2022-12-23T00:11:19.642Z,47.08
2022-12-23T00:12:19.656Z,47.18
2022-12-23T00:13:19.746Z,47.13
2022-12-23T00:14:21.943Z,47.24
2022-12-23T00:15:20.022Z,47.26
2022-12-23T00:16:20.239Z,47.13
2022-12-23T00:17:22.951Z,47.18
2022-12-23T00:18:20.498Z,47.10
2022-12-23T00:19:20.544Z,47.03
2022-12-23T00:20:20.684Z,47.13
2022-12-23T00:21:20.787Z,47.08
2022-12-23T00:22:20.918Z,47.03
2022-12-23T00:23:21.021Z,47.13
2022-12-23T00:24:21.227Z,47.18
2022-12-23T00:25:21.274Z,47.16
2022-12-23T00:26:21.366Z,47.13
2022-12-23T00:27:21.495Z,47.21
2022-12-23T00:28:21.688Z,47.24
2022-12-23T00:29:21.796Z,47.16
2022-12-23T00:30:21.833Z,47.16
2022-12-23T00:31:22.024Z,47.18
2022-12-23T00:32:22.242Z,47.13
2022-12-23T00:33:23.218Z,47.13
2022-12-23T00:34:22.698Z,47.10
2022-12-23T00:35:22.479Z,47.00
2022-12-23T00:36:22.749Z,47.16
2022-12-23T00:37:22.831Z,47.03
2022-12-23T00:38:22.850Z,46.87
2022-12-23T00:39:22.938Z,46.97
2022-12-23T00:40:23.080Z,46.82
2022-12-23T00:41:23.191Z,46.76
2022-12-23T00:42:23.331Z,46.97
2022-12-23T00:43:23.508Z,46.76
2022-12-23T00:44:23.529Z,46.66
2022-12-23T00:45:23.677Z,46.56
2022-12-23T00:46:23.922Z,46.56
2022-12-23T00:47:24.053Z,46.40
2022-12-23T00:48:24.652Z,46.50
2022-12-23T00:49:25.126Z,46.50
2022-12-23T00:50:24.347Z,46.56
2022-12-23T00:51:24.396Z,46.45
2022-12-23T00:52:24.692Z,46.40
2022-12-23T00:53:24.674Z,46.35
2022-12-23T00:54:24.778Z,46.45
2022-12-23T00:55:24.911Z,46.30
2022-12-23T00:56:25.081Z,46.25
2022-12-23T00:57:25.202Z,46.25
2022-12-23T00:58:25.255Z,46.25
2022-12-23T00:59:25.440Z,46.30
2022-12-23T01:00:25.508Z,46.19
2022-12-23T01:01:25.753Z,46.04
2022-12-23T01:02:25.923Z,45.89
2022-12-23T01:03:25.852Z,45.84
2022-12-23T01:04:25.936Z,45.84
2022-12-23T01:05:26.045Z,45.89
2022-12-23T01:06:26.232Z,45.84
2022-12-23T01:07:26.367Z,45.89
2022-12-23T01:08:26.396Z,45.74
2022-12-23T01:09:26.509Z,45.79
2022-12-23T01:10:26.706Z,45.79
2022-12-23T01:11:27.287Z,45.74
2022-12-23T01:12:28.531Z,45.84
2022-12-23T01:13:27.046Z,45.89
2022-12-23T01:14:27.093Z,45.89
2022-12-23T01:15:27.200Z,45.89
2022-12-23T01:16:27.355Z,45.89
2022-12-23T01:17:27.523Z,45.94
2022-12-23T01:18:27.536Z,46.04
2022-12-23T01:19:27.743Z,45.94
2022-12-23T01:20:27.864Z,46.09
2022-12-23T01:21:27.880Z,46.04
2022-12-23T01:22:28.082Z,46.09
2022-12-23T01:23:28.091Z,45.94
2022-12-23T01:24:28.193Z,46.09
2022-12-23T01:25:28.359Z,46.04
2022-12-23T01:26:28.552Z,46.14
2022-12-23T01:27:28.686Z,46.04
2022-12-23T01:28:28.783Z,46.14
2022-12-23T01:29:29.029Z,46.09
2022-12-23T01:30:29.008Z,46.09
2022-12-23T01:31:29.227Z,45.94
2022-12-23T01:32:29.397Z,45.99
2022-12-23T01:33:29.406Z,45.99
2022-12-23T01:34:36.001Z,46.09
2022-12-23T01:35:30.665Z,46.04
2022-12-23T01:36:29.783Z,46.14
2022-12-23T01:37:30.063Z,46.09
2022-12-23T01:38:30.179Z,46.14
2022-12-23T01:39:30.142Z,46.04
2022-12-23T01:40:30.219Z,46.14
2022-12-23T01:41:30.341Z,46.04
2022-12-23T01:42:30.545Z,46.09
2022-12-23T01:43:30.620Z,45.99
2022-12-23T01:44:30.707Z,46.14
2022-12-23T01:45:30.830Z,46.09
2022-12-23T01:46:31.071Z,46.14
2022-12-23T01:47:31.128Z,46.14
2022-12-23T01:48:31.208Z,46.14
2022-12-23T01:49:31.313Z,46.14
2022-12-23T01:50:31.542Z,46.09
2022-12-23T01:51:31.651Z,46.14
2022-12-23T01:52:31.705Z,46.19
2022-12-23T01:53:31.793Z,46.14
2022-12-23T01:54:32.267Z,46.25
2022-12-23T01:55:32.116Z,46.25
2022-12-23T01:56:32.224Z,46.09
2022-12-23T01:57:32.337Z,46.09
2022-12-23T01:58:32.470Z,46.04
2022-12-23T01:59:32.641Z,46.19
2022-12-23T02:00:32.720Z,46.04
2022-12-23T02:01:32.984Z,46.09
2022-12-23T02:02:33.152Z,46.14
2022-12-23T02:03:33.107Z,46.14
2022-12-23T02:04:33.766Z,46.14
2022-12-23T02:05:33.244Z,46.30
2022-12-23T02:06:33.328Z,46.19
2022-12-23T02:07:33.587Z,46.19
2022-12-23T02:08:33.572Z,46.25
2022-12-23T02:09:33.802Z,46.19
2022-12-23T02:10:33.844Z,46.25
2022-12-23T02:11:33.955Z,46.25
2022-12-23T02:12:34.096Z,46.19
2022-12-23T02:13:34.240Z,46.35
2022-12-23T02:14:34.333Z,46.35
2022-12-23T02:15:34.504Z,46.40
2022-12-23T02:16:34.695Z,46.45
2022-12-23T02:17:34.856Z,46.40
2022-12-23T02:18:34.935Z,46.35
2022-12-23T02:19:35.069Z,46.19
2022-12-23T02:20:35.150Z,46.25
2022-12-23T02:21:35.309Z,46.19
2022-12-23T02:22:35.406Z,46.14
2022-12-23T02:23:35.544Z,46.19
2022-12-23T02:24:35.677Z,46.35
2022-12-23T02:25:35.740Z,46.45
2022-12-23T02:26:35.832Z,46.50
2022-12-23T02:27:35.948Z,46.66
2022-12-23T02:28:36.035Z,46.66
2022-12-23T02:29:36.157Z,46.76
2022-12-23T02:30:36.332Z,46.82
2022-12-23T02:31:36.437Z,47.05
2022-12-23T02:32:36.667Z,47.10
2022-12-23T02:33:36.689Z,47.32
2022-12-23T02:34:36.949Z,47.51
2022-12-23T02:35:36.934Z,47.67
2022-12-23T02:36:37.163Z,47.78
2022-12-23T02:37:37.294Z,48.08
2022-12-23T02:38:37.345Z,48.22
2022-12-23T02:39:37.511Z,48.42
2022-12-23T02:40:37.639Z,48.70
2022-12-23T02:41:37.717Z,48.84
2022-12-23T02:42:37.913Z,49.07
2022-12-23T02:43:38.031Z,49.36
2022-12-23T02:44:38.161Z,49.48
2022-12-23T02:45:38.247Z,49.63
2022-12-23T02:46:38.534Z,49.69
2022-12-23T02:47:38.443Z,49.74
2022-12-23T02:48:38.612Z,49.71
2022-12-23T02:49:38.779Z,49.80
2022-12-23T02:50:38.949Z,49.86
2022-12-23T02:51:38.922Z,49.98
2022-12-23T02:52:39.093Z,50.31
2022-12-23T02:53:39.197Z,50.56
2022-12-23T02:54:39.280Z,50.59
2022-12-23T02:55:39.440Z,50.93
2022-12-23T02:56:39.529Z,51.12
2022-12-23T02:57:39.706Z,51.37
2022-12-23T02:58:39.779Z,51.56
2022-12-23T02:59:39.883Z,51.59
2022-12-23T03:00:40.046Z,51.59
2022-12-23T03:01:40.218Z,51.49
2022-12-23T03:02:40.596Z,51.40
2022-12-23T03:03:40.473Z,51.46
2022-12-23T03:04:40.532Z,51.12
2022-12-23T03:05:40.604Z,51.21
2022-12-23T03:06:40.733Z,51.27
2022-12-23T03:07:40.919Z,51.12
2022-12-23T03:08:41.058Z,51.05
2022-12-23T03:09:41.128Z,50.96
2022-12-23T03:10:41.284Z,50.87
2022-12-23T03:11:41.449Z,50.87
2022-12-23T03:12:41.530Z,50.77
2022-12-23T03:13:41.628Z,50.77
2022-12-23T03:14:41.731Z,50.71
2022-12-23T03:15:41.896Z,50.80
2022-12-23T03:16:41.967Z,50.77
2022-12-23T03:17:42.091Z,50.71
2022-12-23T03:18:42.184Z,50.56
2022-12-23T03:19:42.350Z,50.53
2022-12-23T03:20:42.475Z,50.56
2022-12-23T03:21:42.574Z,50.68
2022-12-23T03:22:42.771Z,50.65
2022-12-23T03:23:42.843Z,50.50
2022-12-23T03:24:43.032Z,50.62
2022-12-23T03:25:43.098Z,50.47
2022-12-23T03:26:43.183Z,50.50
2022-12-23T03:27:43.332Z,50.34
2022-12-23T03:28:43.433Z,50.44
2022-12-23T03:29:43.579Z,50.25
2022-12-23T03:30:43.756Z,50.22
2022-12-23T03:31:43.874Z,50.40
2022-12-23T03:32:43.985Z,50.31
2022-12-23T03:33:44.068Z,50.28
2022-12-23T03:34:44.209Z,50.31
2022-12-23T03:35:44.310Z,50.38
2022-12-23T03:36:44.391Z,50.31
2022-12-23T03:37:44.571Z,50.40
2022-12-23T03:38:44.653Z,50.40
2022-12-23T03:39:44.823Z,50.38
2022-12-23T03:40:44.887Z,50.53
2022-12-23T03:41:45.049Z,50.44
2022-12-23T03:42:45.139Z,50.50
2022-12-23T03:43:50.676Z,50.74
2022-12-23T03:45:10.666Z,50.74
2022-12-23T03:45:46.527Z,50.71
2022-12-23T03:46:45.714Z,50.80
2022-12-23T03:47:45.854Z,50.68
2022-12-23T03:48:45.920Z,50.80
2022-12-23T03:49:46.078Z,50.68
2022-12-23T03:50:46.250Z,50.74
2022-12-23T03:51:46.316Z,50.65
2022-12-23T03:52:46.503Z,50.74
2022-12-23T03:53:46.574Z,50.77
2022-12-23T03:54:46.720Z,50.80
2022-12-23T03:55:46.850Z,50.65
2022-12-23T03:56:46.995Z,50.40
2022-12-23T03:57:47.175Z,50.47
2022-12-23T03:58:47.372Z,50.44
2022-12-23T03:59:47.425Z,50.10
2022-12-23T04:00:47.536Z,50.04
2022-12-23T04:01:47.784Z,49.69
2022-12-23T04:02:47.862Z,49.65
2022-12-23T04:03:47.936Z,49.48
2022-12-23T04:04:47.977Z,49.57
2022-12-23T04:05:48.061Z,49.24
2022-12-23T04:06:48.141Z,49.04
2022-12-23T04:07:48.314Z,49.13
2022-12-23T04:08:48.481Z,49.13
2022-12-23T04:09:48.525Z,49.07
2022-12-23T04:10:48.628Z,48.99
2022-12-23T04:11:48.784Z,48.90
2022-12-23T04:12:48.894Z,49.16
2022-12-23T04:13:49.010Z,49.10
2022-12-23T04:14:49.130Z,49.13
2022-12-23T04:15:49.327Z,49.04
2022-12-23T04:16:49.411Z,49.19
2022-12-23T04:17:49.560Z,49.07
2022-12-23T04:18:49.709Z,49.30
2022-12-23T04:19:49.777Z,49.19
2022-12-23T04:20:49.849Z,49.10
2022-12-23T04:21:50.026Z,49.16
2022-12-23T04:22:50.130Z,49.30
2022-12-23T04:23:50.228Z,49.13
2022-12-23T04:24:50.345Z,49.19
2022-12-23T04:25:50.429Z,49.36
2022-12-23T04:26:50.586Z,49.33
2022-12-23T04:27:50.715Z,49.36
2022-12-23T04:28:50.825Z,49.51
2022-12-23T04:29:51.024Z,49.60
2022-12-23T04:30:51.065Z,49.69
2022-12-23T04:31:51.217Z,49.89
2022-12-23T04:32:51.279Z,50.01
2022-12-23T04:33:51.476Z,50.16
2022-12-23T04:34:51.529Z,50.19
2022-12-23T04:35:51.621Z,50.50
2022-12-23T04:36:51.746Z,50.56
2022-12-23T04:37:51.894Z,50.62
2022-12-23T04:38:52.035Z,50.83
2022-12-23T04:39:52.147Z,50.80
2022-12-23T04:40:52.234Z,50.80
2022-12-23T04:41:52.379Z,50.99
2022-12-23T04:42:52.622Z,51.02
2022-12-23T04:43:53.499Z,51.21
2022-12-23T04:44:52.844Z,51.18
2022-12-23T04:45:52.999Z,51.43
2022-12-23T04:46:53.128Z,51.40
2022-12-23T04:47:53.280Z,51.37
2022-12-23T04:48:53.318Z,51.40
2022-12-23T04:49:53.430Z,51.53
2022-12-23T04:50:53.512Z,51.65
2022-12-23T04:51:53.715Z,51.65
2022-12-23T04:52:53.781Z,51.72
2022-12-23T04:53:53.985Z,51.27
2022-12-23T04:54:54.052Z,51.46
2022-12-23T04:55:54.140Z,51.40
2022-12-23T04:56:54.290Z,51.37
2022-12-23T04:57:54.381Z,51.49
2022-12-23T04:58:54.593Z,51.43
2022-12-23T04:59:54.685Z,51.59
2022-12-23T05:00:54.861Z,51.65
2022-12-23T05:01:55.065Z,51.81
2022-12-23T05:02:55.161Z,51.69
2022-12-23T05:03:55.179Z,51.81
2022-12-23T05:04:55.272Z,51.85
2022-12-23T05:05:55.397Z,51.78
2022-12-23T05:06:55.480Z,51.81
2022-12-23T05:07:57.200Z,52.01
2022-12-23T05:08:55.745Z,52.07
2022-12-23T05:09:55.843Z,51.94
2022-12-23T05:10:55.975Z,51.81
2022-12-23T05:11:56.020Z,51.75
2022-12-23T05:12:56.157Z,51.40
2022-12-23T05:13:56.321Z,51.43
2022-12-23T05:14:56.429Z,51.15
2022-12-23T05:15:56.552Z,50.96
2022-12-23T05:16:59.659Z,50.90
2022-12-23T05:17:57.772Z,50.77
2022-12-23T05:18:57.087Z,50.50
2022-12-23T05:19:57.077Z,50.38
2022-12-23T05:20:57.178Z,50.44
2022-12-23T05:21:57.283Z,50.22
2022-12-23T05:22:57.401Z,50.16
2022-12-23T05:23:57.525Z,50.07
2022-12-23T05:24:57.614Z,50.04
2022-12-23T05:25:57.757Z,49.98
2022-12-23T05:27:00.314Z,50.07
2022-12-23T05:27:58.132Z,49.92
2022-12-23T05:28:58.220Z,49.83
2022-12-23T05:29:58.297Z,49.71
2022-12-23T05:30:58.376Z,49.80
2022-12-23T05:31:58.629Z,49.77
2022-12-23T05:32:58.795Z,49.51
2022-12-23T05:34:05.686Z,49.63
2022-12-23T05:34:59.940Z,49.48
2022-12-23T05:35:59.089Z,49.27
2022-12-23T05:36:59.152Z,49.27
2022-12-23T05:37:59.349Z,49.16
2022-12-23T05:38:59.449Z,49.10
2022-12-23T05:39:59.550Z,49.01
2022-12-23T05:40:59.638Z,48.64
2022-12-23T05:41:59.748Z,48.81
2022-12-23T05:42:59.913Z,48.81
2022-12-23T05:44:00.003Z,48.70
2022-12-23T05:45:00.097Z,48.67
2022-12-23T05:46:00.330Z,48.53
2022-12-23T05:47:00.361Z,48.58
2022-12-23T05:48:01.036Z,48.64
2022-12-23T05:49:00.551Z,48.58
2022-12-23T05:50:00.709Z,48.58
2022-12-23T05:51:00.789Z,48.96
2022-12-23T05:52:00.926Z,48.58
2022-12-23T05:53:01.096Z,48.78
2022-12-23T05:54:01.172Z,48.87
2022-12-23T05:55:01.315Z,48.90
2022-12-23T05:56:01.512Z,48.64
2022-12-23T05:57:01.600Z,48.67
2022-12-23T05:58:01.802Z,48.84
2022-12-23T05:59:01.918Z,48.67
2022-12-23T06:00:02.025Z,48.70
2022-12-23T06:01:02.085Z,48.87
2022-12-23T06:02:02.545Z,48.84
2022-12-23T06:03:02.516Z,49.01
2022-12-23T06:04:02.694Z,48.70
2022-12-23T06:05:02.639Z,48.96
2022-12-23T06:06:02.704Z,48.76
2022-12-23T06:07:02.796Z,48.78
2022-12-23T06:08:03.045Z,48.90
2022-12-23T06:09:03.051Z,48.67
2022-12-23T06:10:03.165Z,49.01
2022-12-23T06:11:03.325Z,48.78
2022-12-23T06:12:03.427Z,48.64
2022-12-23T06:13:03.514Z,48.78
2022-12-23T06:14:03.620Z,48.78
2022-12-23T06:15:03.739Z,48.81
2022-12-23T06:16:03.898Z,48.73
2022-12-23T06:17:04.085Z,48.53
2022-12-23T06:18:04.038Z,48.84
2022-12-23T06:19:04.143Z,48.84
2022-12-23T06:20:04.236Z,48.73
2022-12-23T06:21:04.341Z,48.78
2022-12-23T06:22:04.506Z,48.70
2022-12-23T06:23:04.602Z,48.96
2022-12-23T06:24:04.709Z,49.01
2022-12-23T06:25:04.922Z,48.70
2022-12-23T06:26:04.888Z,48.70
2022-12-23T06:27:04.988Z,48.78
2022-12-23T06:28:05.213Z,48.70
2022-12-23T06:29:05.227Z,48.76
2022-12-23T06:30:05.391Z,48.78
2022-12-23T06:31:05.519Z,48.73
2022-12-23T06:32:05.685Z,48.76
2022-12-23T06:33:05.794Z,48.81
2022-12-23T06:34:05.878Z,48.90
2022-12-23T06:35:05.976Z,48.90
2022-12-23T06:36:06.193Z,48.81
2022-12-23T06:37:06.310Z,48.76
2022-12-23T06:38:11.708Z,48.64
2022-12-23T06:39:07.534Z,48.61
2022-12-23T06:40:06.604Z,48.61
2022-12-23T06:41:06.811Z,48.78
2022-12-23T06:42:06.903Z,48.70
2022-12-23T06:43:07.000Z,48.70
2022-12-23T06:44:07.128Z,48.67
2022-12-23T06:45:07.243Z,48.78
2022-12-23T06:46:07.419Z,48.67
2022-12-23T06:47:07.519Z,48.76
2022-12-23T06:48:07.666Z,48.84
2022-12-23T06:49:13.055Z,49.04
2022-12-23T06:50:08.895Z,48.93
2022-12-23T06:51:07.986Z,48.78
2022-12-23T06:52:08.171Z,48.99
2022-12-23T06:53:08.190Z,48.93
2022-12-23T06:54:08.331Z,48.99
2022-12-23T06:55:08.483Z,49.04
2022-12-23T06:56:08.599Z,49.16
2022-12-23T06:57:08.703Z,49.04
2022-12-23T06:58:08.800Z,48.99
2022-12-23T06:59:08.880Z,49.01
2022-12-23T07:00:09.050Z,48.84
2022-12-23T07:01:10.204Z,48.93
2022-12-23T07:02:09.487Z,48.90
2022-12-23T07:03:09.601Z,49.01
2022-12-23T07:04:09.551Z,48.93
2022-12-23T07:05:09.613Z,48.76
2022-12-23T07:06:09.789Z,48.56
2022-12-23T07:07:09.844Z,48.64
2022-12-23T07:08:10.557Z,48.58
2022-12-23T07:09:10.021Z,48.64
2022-12-23T07:10:10.158Z,48.44
2022-12-23T07:11:10.270Z,48.44
2022-12-23T07:12:10.359Z,48.56
2022-12-23T07:13:10.450Z,48.67
2022-12-23T07:14:10.567Z,48.61
2022-12-23T07:15:10.808Z,48.56
2022-12-23T07:16:10.838Z,48.39
2022-12-23T07:17:11.031Z,48.30
2022-12-23T07:18:11.163Z,48.30
2022-12-23T07:19:11.156Z,48.39
2022-12-23T07:20:11.344Z,48.30
2022-12-23T07:21:21.165Z,48.25
2022-12-23T07:22:12.550Z,48.22
2022-12-23T07:23:11.693Z,48.30
2022-12-23T07:24:11.737Z,48.19
2022-12-23T07:25:11.922Z,47.92
2022-12-23T07:26:12.097Z,47.97
2022-12-23T07:27:12.187Z,48.22
2022-12-23T07:28:12.312Z,48.14
2022-12-23T07:29:12.412Z,48.08
2022-12-23T07:30:12.550Z,47.97
2022-12-23T07:31:12.816Z,48.11
2022-12-23T07:32:12.875Z,48.08
2022-12-23T07:33:12.947Z,48.00
2022-12-23T07:34:13.031Z,47.92
2022-12-23T07:35:13.190Z,48.22
2022-12-23T07:36:13.383Z,48.11
2022-12-23T07:37:13.340Z,48.00
2022-12-23T07:38:13.468Z,47.89
2022-12-23T07:39:13.661Z,48.03
2022-12-23T07:40:13.809Z,47.86
2022-12-23T07:41:13.957Z,47.92
2022-12-23T07:42:43.594Z,47.81
2022-12-23T07:43:15.112Z,47.72
2022-12-23T07:44:14.259Z,47.59
2022-12-23T07:45:14.425Z,47.75
2022-12-23T07:46:14.578Z,47.81
2022-12-23T07:47:14.611Z,47.64
2022-12-23T07:48:14.702Z,47.70
2022-12-23T07:49:14.820Z,47.62
2022-12-23T07:50:15.069Z,47.56
2022-12-23T07:51:15.136Z,47.56
2022-12-23T07:52:15.223Z,47.56
2022-12-23T07:53:15.405Z,47.64
2022-12-23T07:54:15.461Z,47.67
2022-12-23T07:55:15.641Z,47.51
2022-12-23T07:56:15.727Z,47.37
2022-12-23T07:57:15.870Z,47.59
2022-12-23T07:58:15.966Z,47.51
2022-12-23T07:59:16.107Z,47.42
2022-12-23T08:00:16.154Z,47.42
2022-12-23T08:01:16.404Z,47.51
2022-12-23T08:02:16.492Z,47.40
2022-12-23T08:03:16.661Z,47.37
2022-12-23T08:04:16.601Z,47.45
2022-12-23T08:05:16.916Z,47.51
2022-12-23T08:06:17.023Z,47.45
2022-12-23T08:07:16.982Z,47.53
2022-12-23T08:08:17.087Z,47.53
2022-12-23T08:09:17.306Z,47.51
2022-12-23T08:10:17.352Z,47.48
2022-12-23T08:11:17.502Z,47.53
2022-12-23T08:12:17.560Z,47.56
2022-12-23T08:13:17.721Z,47.67
2022-12-23T08:14:17.814Z,47.75
2022-12-23T08:15:17.902Z,47.75
2022-12-23T08:16:18.084Z,47.53
2022-12-23T08:17:18.324Z,47.92
2022-12-23T08:18:18.259Z,47.70
2022-12-23T08:19:18.390Z,47.70
2022-12-23T08:20:18.617Z,47.72
2022-12-23T08:21:18.730Z,47.89
2022-12-23T08:22:18.787Z,47.72
2022-12-23T08:23:24.532Z,47.67
2022-12-23T08:24:20.012Z,47.64
2022-12-23T08:25:19.127Z,47.81
2022-12-23T08:26:19.320Z,47.67
2022-12-23T08:27:19.418Z,47.70
2022-12-23T08:28:19.586Z,47.67
2022-12-23T08:29:19.644Z,47.70
2022-12-23T08:30:19.726Z,47.56
2022-12-23T08:31:19.970Z,47.67
2022-12-23T08:32:19.972Z,47.64
2022-12-23T08:33:20.077Z,47.64
2022-12-23T08:34:20.154Z,47.29
2022-12-23T08:35:20.298Z,47.40
2022-12-23T08:36:23.061Z,47.56
2022-12-23T08:37:20.585Z,47.64
2022-12-23T08:38:20.728Z,47.64
2022-12-23T08:39:20.903Z,47.53
2022-12-23T08:40:21.010Z,47.51
2022-12-23T08:41:21.120Z,47.51
2022-12-23T08:42:21.197Z,47.45
2022-12-23T08:43:21.383Z,47.62
2022-12-23T08:44:21.545Z,47.70
2022-12-23T08:45:21.590Z,47.72
2022-12-23T08:46:21.874Z,47.81
2022-12-23T08:47:21.820Z,47.67
2022-12-23T08:48:21.998Z,47.56
2022-12-23T08:49:22.083Z,47.72
2022-12-23T08:50:22.265Z,47.51
2022-12-23T08:51:22.362Z,47.89
2022-12-23T08:52:22.441Z,47.62
2022-12-23T08:53:22.551Z,47.35
2022-12-23T08:54:22.717Z,47.42
2022-12-23T08:55:22.769Z,47.45
2022-12-23T08:56:22.941Z,47.40
2022-12-23T08:57:23.017Z,47.29
2022-12-23T08:58:23.165Z,47.24
2022-12-23T08:59:23.374Z,47.16
2022-12-23T09:00:23.619Z,47.16
2022-12-23T09:01:23.598Z,47.24
2022-12-23T09:02:23.832Z,47.45
2022-12-23T09:03:23.812Z,47.10
2022-12-23T09:04:23.906Z,47.16
2022-12-23T09:05:24.279Z,47.53
2022-12-23T09:06:29.092Z,47.29
2022-12-23T09:07:25.249Z,47.35
2022-12-23T09:08:24.439Z,47.24
2022-12-23T09:09:24.556Z,47.10
2022-12-23T09:10:24.646Z,47.35
2022-12-23T09:11:24.786Z,47.29
2022-12-23T09:12:24.888Z,47.35
2022-12-23T09:13:32.727Z,47.16
2022-12-23T09:14:26.100Z,47.08
2022-12-23T09:15:25.245Z,47.24
2022-12-23T09:16:25.555Z,47.24
2022-12-23T09:17:25.495Z,47.40
2022-12-23T09:18:25.589Z,47.40
2022-12-23T09:19:25.720Z,47.24
2022-12-23T09:20:25.947Z,47.32
2022-12-23T09:21:26.056Z,47.16
2022-12-23T09:22:26.173Z,47.13
2022-12-23T09:23:26.293Z,47.03
2022-12-23T09:24:26.396Z,47.16
2022-12-23T09:25:26.495Z,47.26
2022-12-23T09:26:26.698Z,47.24
2022-12-23T09:27:26.740Z,47.13
2022-12-23T09:28:26.921Z,46.97
2022-12-23T09:29:27.003Z,47.26
2022-12-23T09:30:27.167Z,47.26
2022-12-23T09:31:34.039Z,47.13
2022-12-23T09:32:28.384Z,47.24
2022-12-23T09:33:27.513Z,47.10
2022-12-23T09:34:27.649Z,47.32
2022-12-23T09:35:27.918Z,47.42
2022-12-23T09:36:27.982Z,47.45
2022-12-23T09:37:28.098Z,47.26
2022-12-23T09:38:28.227Z,47.21
2022-12-23T09:39:28.400Z,47.42
2022-12-23T09:40:29.075Z,47.18
2022-12-23T09:41:28.582Z,47.29
2022-12-23T09:42:28.680Z,47.40
2022-12-23T09:43:28.765Z,47.56
2022-12-23T09:44:28.914Z,47.48
2022-12-23T09:45:29.123Z,47.40
2022-12-23T09:46:29.233Z,47.42
2022-12-23T09:47:29.259Z,47.35
2022-12-23T09:48:29.443Z,47.70
2022-12-23T09:49:29.515Z,47.72
2022-12-23T09:50:29.706Z,47.62
2022-12-23T09:51:29.737Z,47.70
2022-12-23T09:52:29.856Z,47.59
2022-12-23T09:53:30.065Z,47.32
2022-12-23T09:54:30.091Z,47.53
2022-12-23T09:55:30.224Z,47.35
2022-12-23T09:56:30.436Z,47.40
2022-12-23T09:57:30.467Z,47.35
2022-12-23T09:58:30.565Z,47.40
2022-12-23T09:59:30.651Z,47.45
2022-12-23T10:00:30.922Z,47.48
2022-12-23T10:01:31.079Z,47.51
2022-12-23T10:02:31.280Z,47.51
2022-12-23T10:03:31.445Z,47.29
2022-12-23T10:04:31.348Z,47.56
2022-12-23T10:05:31.339Z,47.45
2022-12-23T10:06:31.594Z,47.37
2022-12-23T10:07:31.604Z,47.53
2022-12-23T10:08:31.813Z,47.32
2022-12-23T10:09:31.891Z,47.53
2022-12-23T10:10:31.993Z,47.42
2022-12-23T10:11:32.204Z,47.35
2022-12-23T10:12:39.146Z,47.18
2022-12-23T10:13:33.375Z,47.29
2022-12-23T10:14:32.516Z,47.24
2022-12-23T10:15:32.594Z,47.16
2022-12-23T10:16:32.904Z,47.03
2022-12-23T10:17:32.887Z,47.13
2022-12-23T10:18:32.957Z,47.13
2022-12-23T10:19:33.125Z,46.92
2022-12-23T10:20:33.289Z,46.82
2022-12-23T10:21:33.405Z,46.94
2022-12-23T10:22:33.444Z,46.97
2022-12-23T10:23:33.544Z,46.76
2022-12-23T10:24:33.689Z,47.00
2022-12-23T10:25:33.797Z,46.97
2022-12-23T10:26:34.025Z,46.97
2022-12-23T10:27:34.033Z,46.82
2022-12-23T10:28:34.133Z,46.92
2022-12-23T10:29:34.264Z,46.92
2022-12-23T10:30:57.228Z,46.61
2022-12-23T10:31:40.768Z,46.61
2022-12-23T10:32:35.663Z,46.66
2022-12-23T10:33:34.751Z,46.61
2022-12-23T10:34:38.453Z,46.35
2022-12-23T10:35:34.958Z,46.50
2022-12-23T10:36:35.141Z,46.45
2022-12-23T10:37:35.256Z,46.61
2022-12-23T10:38:35.347Z,46.61
2022-12-23T10:39:35.504Z,46.50
2022-12-23T10:40:35.618Z,46.71
2022-12-23T10:41:35.716Z,46.45
2022-12-23T10:42:35.890Z,46.56
2022-12-23T10:43:35.947Z,46.66
2022-12-23T10:44:36.155Z,46.56
2022-12-23T10:45:36.208Z,46.71
2022-12-23T10:46:36.333Z,46.66
2022-12-23T10:47:36.527Z,46.66
2022-12-23T10:48:36.586Z,46.56
2022-12-23T10:49:36.623Z,46.50
2022-12-23T10:50:36.766Z,46.87
2022-12-23T10:51:36.910Z,46.56
2022-12-23T10:52:37.019Z,46.82
2022-12-23T10:53:37.172Z,46.61
2022-12-23T10:54:37.252Z,46.56
2022-12-23T10:55:37.418Z,46.82
2022-12-23T10:56:37.558Z,46.45
2022-12-23T10:57:37.643Z,46.50
2022-12-23T10:58:37.783Z,46.71
2022-12-23T10:59:37.948Z,46.66
2022-12-23T11:00:38.281Z,46.71
2022-12-23T11:01:38.387Z,46.82
2022-12-23T11:02:38.494Z,46.92
2022-12-23T11:03:38.714Z,46.66
2022-12-23T11:04:38.551Z,46.71
2022-12-23T11:05:38.696Z,46.71
2022-12-23T11:06:38.941Z,46.71
2022-12-23T11:07:44.639Z,46.92
2022-12-23T11:08:40.095Z,46.82
2022-12-23T11:09:39.189Z,46.71
2022-12-23T11:10:39.282Z,47.00
2022-12-23T11:11:39.600Z,46.76
2022-12-23T11:12:42.164Z,46.71
2022-12-23T11:13:39.680Z,46.82
2022-12-23T11:14:39.782Z,46.97
2022-12-23T11:15:39.878Z,47.05
2022-12-23T11:16:40.155Z,47.24
2022-12-23T11:17:40.190Z,47.35
2022-12-23T11:18:42.161Z,47.35
2022-12-23T11:19:40.399Z,47.59
2022-12-23T11:20:40.591Z,47.53
2022-12-23T11:21:40.656Z,47.62
2022-12-23T11:22:40.787Z,47.72
2022-12-23T11:23:40.906Z,47.70
2022-12-23T11:24:43.260Z,47.75
2022-12-23T11:25:41.225Z,47.81
2022-12-23T11:26:41.312Z,47.92
2022-12-23T11:27:41.409Z,48.22
2022-12-23T11:28:41.476Z,48.17
2022-12-23T11:29:41.616Z,48.44
2022-12-23T11:30:41.757Z,48.17
2022-12-23T11:31:41.923Z,48.14
2022-12-23T11:32:41.996Z,48.28
2022-12-23T11:33:42.091Z,48.39
2022-12-23T11:34:42.239Z,48.33
2022-12-23T11:35:42.347Z,48.28
2022-12-23T11:36:42.468Z,48.33
2022-12-23T11:37:42.555Z,48.56
2022-12-23T11:38:42.675Z,48.56
2022-12-23T11:39:42.823Z,48.47
2022-12-23T11:40:43.077Z,48.58
2022-12-23T11:41:43.135Z,48.78
2022-12-23T11:42:43.221Z,48.67
2022-12-23T11:43:43.335Z,48.50
2022-12-23T11:44:43.522Z,48.47
2022-12-23T11:45:43.647Z,48.47
2022-12-23T11:46:43.740Z,48.47
2022-12-23T11:47:43.819Z,48.36
2022-12-23T11:48:43.969Z,48.36
2022-12-23T11:49:44.070Z,48.61
2022-12-23T11:50:44.281Z,48.67
2022-12-23T11:51:44.374Z,48.58
2022-12-23T11:52:44.460Z,48.36
2022-12-23T11:53:44.633Z,48.33
2022-12-23T11:54:46.760Z,48.47
2022-12-23T11:55:44.883Z,48.39
2022-12-23T11:56:45.008Z,48.39
2022-12-23T11:57:45.143Z,48.78
2022-12-23T11:58:45.228Z,48.67
2022-12-23T11:59:45.380Z,48.78
2022-12-23T12:00:49.379Z,48.70
2022-12-23T12:01:46.735Z,48.67
2022-12-23T12:02:45.893Z,48.78
2022-12-23T12:03:45.901Z,49.01
2022-12-23T12:04:45.975Z,49.07
2022-12-23T12:05:46.072Z,48.93
2022-12-23T12:06:51.171Z,49.19
2022-12-23T12:07:47.384Z,49.13
2022-12-23T12:08:46.416Z,48.99
2022-12-23T12:09:46.593Z,49.10
2022-12-23T12:10:46.682Z,49.07
2022-12-23T12:11:46.754Z,49.07
2022-12-23T12:12:52.800Z,49.36
2022-12-23T12:13:48.088Z,49.24
2022-12-23T12:14:47.161Z,49.30
2022-12-23T12:15:47.261Z,49.27
2022-12-23T12:16:47.454Z,49.48
2022-12-23T12:17:47.521Z,49.57
2022-12-23T12:18:53.630Z,49.13
2022-12-23T12:19:48.753Z,49.22
2022-12-23T12:20:47.910Z,49.16
2022-12-23T12:21:47.925Z,49.19
2022-12-23T12:22:48.008Z,49.16
2022-12-23T12:23:48.193Z,49.22
2022-12-23T12:24:48.273Z,49.10
2022-12-23T12:25:48.387Z,49.22
2022-12-23T12:26:48.480Z,49.10
2022-12-23T12:27:48.580Z,49.07
2022-12-23T12:28:48.746Z,48.87
2022-12-23T12:29:48.944Z,48.90
2022-12-23T12:30:48.961Z,49.07
2022-12-23T12:31:49.040Z,48.81
2022-12-23T12:32:49.135Z,48.90
2022-12-23T12:33:49.307Z,49.07
2022-12-23T12:34:49.349Z,48.67
2022-12-23T12:35:53.474Z,48.90
2022-12-23T12:36:49.647Z,48.84
2022-12-23T12:37:49.689Z,48.81
2022-12-23T12:38:49.893Z,48.87
2022-12-23T12:39:49.948Z,48.58
2022-12-23T12:40:50.155Z,48.61
2022-12-23T12:41:50.169Z,48.84
2022-12-23T12:42:50.301Z,48.78
2022-12-23T12:43:50.412Z,48.56
2022-12-23T12:44:50.494Z,48.76
2022-12-23T12:45:50.655Z,48.61
2022-12-23T12:46:50.747Z,48.58
2022-12-23T12:47:56.631Z,48.76
2022-12-23T12:48:52.007Z,48.81
2022-12-23T12:49:51.086Z,48.87
2022-12-23T12:50:51.179Z,48.78
2022-12-23T12:51:51.308Z,49.07
2022-12-23T12:52:51.438Z,48.93
2022-12-23T12:53:51.564Z,48.96